sensor_id;sensor_type;location;lat;lon;timestamp;temperature;humidity
17918;DHT22;9084;50.956;3.106;2022-07-06T00:02:28;14.90;1.00
17918;DHT22;9084;50.956;3.106;2022-07-06T00:04:54;14.90;1.00
17918;DHT22;9084;50.956;3.106;2022-07-06T00:07:23;14.90;1.00
17918;DHT22;9084;50.956;3.106;2022-07-06T00:09:49;14.90;1.00
17918;DHT22;9084;50.956;3.106;2022-07-06T00:12:17;14.80;1.00
17918;DHT22;9084;50.956;3.106;2022-07-06T00:14:43;14.80;1.00
17918;DHT22;9084;50.956;3.106;2022-07-06T00:17:11;14.70;1.00
17918;DHT22;9084;50.956;3.106;2022-07-06T00:19:40;14.70;1.00
17918;DHT22;9084;50.956;3.106;2022-07-06T00:22:06;14.70;1.00
17918;DHT22;9084;50.956;3.106;2022-07-06T00:24:31;14.70;1.00
17918;DHT22;9084;50.956;3.106;2022-07-06T00:26:57;14.70;1.00
17918;DHT22;9084;50.956;3.106;2022-07-06T00:29:23;14.60;1.00
17918;DHT22;9084;50.956;3.106;2022-07-06T00:31:48;14.60;1.00
17918;DHT22;9084;50.956;3.106;2022-07-06T00:34:14;14.60;1.00
17918;DHT22;9084;50.956;3.106;2022-07-06T00:36:40;14.50;1.00
17918;DHT22;9084;50.956;3.106;2022-07-06T00:39:06;14.50;1.00
17918;DHT22;9084;50.956;3.106;2022-07-06T00:41:32;14.50;1.00
17918;DHT22;9084;50.956;3.106;2022-07-06T00:43:58;14.60;1.00
17918;DHT22;9084;50.956;3.106;2022-07-06T00:46:32;14.60;1.00
17918;DHT22;9084;50.956;3.106;2022-07-06T00:48:58;14.60;1.00
17918;DHT22;9084;50.956;3.106;2022-07-06T00:51:34;14.60;1.00
17918;DHT22;9084;50.956;3.106;2022-07-06T00:54:03;14.50;1.00
17918;DHT22;9084;50.956;3.106;2022-07-06T00:56:30;14.50;1.00
17918;DHT22;9084;50.956;3.106;2022-07-06T00:58:57;14.50;1.00
17918;DHT22;9084;50.956;3.106;2022-07-06T01:01:23;14.50;1.00
17918;DHT22;9084;50.956;3.106;2022-07-06T01:03:49;14.50;1.00
17918;DHT22;9084;50.956;3.106;2022-07-06T01:06:15;14.50;1.00
17918;DHT22;9084;50.956;3.106;2022-07-06T01:08:41;14.50;1.00
17918;DHT22;9084;50.956;3.106;2022-07-06T01:11:07;14.60;1.00
17918;DHT22;9084;50.956;3.106;2022-07-06T01:13:35;14.60;1.00
17918;DHT22;9084;50.956;3.106;2022-07-06T01:16:01;14.60;1.00
17918;DHT22;9084;50.956;3.106;2022-07-06T01:18:30;14.60;1.00
17918;DHT22;9084;50.956;3.106;2022-07-06T01:21:13;14.60;1.50
17918;DHT22;9084;50.956;3.106;2022-07-06T01:23:44;14.60;4.60
17918;DHT22;9084;50.956;3.106;2022-07-06T01:26:16;14.60;5.20
17918;DHT22;9084;50.956;3.106;2022-07-06T01:28:44;14.60;6.10
17918;DHT22;9084;50.956;3.106;2022-07-06T01:31:22;14.60;5.50
17918;DHT22;9084;50.956;3.106;2022-07-06T01:33:49;14.60;5.70
17918;DHT22;9084;50.956;3.106;2022-07-06T01:36:16;14.50;6.10
17918;DHT22;9084;50.956;3.106;2022-07-06T01:38:46;14.50;6.60
17918;DHT22;9084;50.956;3.106;2022-07-06T01:41:12;14.50;11.10
17918;DHT22;9084;50.956;3.106;2022-07-06T01:43:38;14.50;14.10
17918;DHT22;9084;50.956;3.106;2022-07-06T01:46:06;14.40;14.00
17918;DHT22;9084;50.956;3.106;2022-07-06T01:48:38;14.40;14.20
17918;DHT22;9084;50.956;3.106;2022-07-06T01:51:04;14.30;15.30
17918;DHT22;9084;50.956;3.106;2022-07-06T01:53:30;14.40;15.90
17918;DHT22;9084;50.956;3.106;2022-07-06T01:55:57;14.30;16.30
17918;DHT22;9084;50.956;3.106;2022-07-06T01:58:23;14.30;15.50
17918;DHT22;9084;50.956;3.106;2022-07-06T02:00:49;14.30;15.00
17918;DHT22;9084;50.956;3.106;2022-07-06T02:03:17;14.20;17.30
17918;DHT22;9084;50.956;3.106;2022-07-06T02:05:43;14.20;17.90
17918;DHT22;9084;50.956;3.106;2022-07-06T02:08:08;14.10;20.10
17918;DHT22;9084;50.956;3.106;2022-07-06T02:10:34;14.10;19.80
17918;DHT22;9084;50.956;3.106;2022-07-06T02:13:03;14.10;18.10
17918;DHT22;9084;50.956;3.106;2022-07-06T02:15:29;14.00;20.20
17918;DHT22;9084;50.956;3.106;2022-07-06T02:17:55;14.00;25.00
17918;DHT22;9084;50.956;3.106;2022-07-06T02:20:24;14.00;23.70
17918;DHT22;9084;50.956;3.106;2022-07-06T02:22:50;13.90;24.00
17918;DHT22;9084;50.956;3.106;2022-07-06T02:25:19;13.90;23.10
17918;DHT22;9084;50.956;3.106;2022-07-06T02:27:44;13.90;22.30
17918;DHT22;9084;50.956;3.106;2022-07-06T02:30:12;13.90;22.60
17918;DHT22;9084;50.956;3.106;2022-07-06T02:32:38;13.90;23.30
17918;DHT22;9084;50.956;3.106;2022-07-06T02:35:08;13.80;24.10
17918;DHT22;9084;50.956;3.106;2022-07-06T02:37:33;13.80;23.40
17918;DHT22;9084;50.956;3.106;2022-07-06T02:39:59;13.80;23.90
17918;DHT22;9084;50.956;3.106;2022-07-06T02:42:24;13.70;24.80
17918;DHT22;9084;50.956;3.106;2022-07-06T02:44:53;13.70;23.20
17918;DHT22;9084;50.956;3.106;2022-07-06T02:47:19;13.70;24.90
17918;DHT22;9084;50.956;3.106;2022-07-06T02:49:45;13.60;24.10
17918;DHT22;9084;50.956;3.106;2022-07-06T02:52:11;13.70;25.30
17918;DHT22;9084;50.956;3.106;2022-07-06T02:54:37;13.60;27.50
17918;DHT22;9084;50.956;3.106;2022-07-06T02:57:03;13.60;27.80
17918;DHT22;9084;50.956;3.106;2022-07-06T02:59:31;13.60;25.80
17918;DHT22;9084;50.956;3.106;2022-07-06T03:01:56;13.60;22.70
17918;DHT22;9084;50.956;3.106;2022-07-06T03:04:23;13.60;20.30
17918;DHT22;9084;50.956;3.106;2022-07-06T03:06:49;13.60;20.20
17918;DHT22;9084;50.956;3.106;2022-07-06T03:09:17;13.60;22.40
17918;DHT22;9084;50.956;3.106;2022-07-06T03:11:43;13.50;24.50
17918;DHT22;9084;50.956;3.106;2022-07-06T03:14:12;13.50;24.00
17918;DHT22;9084;50.956;3.106;2022-07-06T03:16:40;13.50;23.90
17918;DHT22;9084;50.956;3.106;2022-07-06T03:19:07;13.40;23.50
17918;DHT22;9084;50.956;3.106;2022-07-06T03:21:34;13.50;22.70
17918;DHT22;9084;50.956;3.106;2022-07-06T03:23:59;13.40;21.20
17918;DHT22;9084;50.956;3.106;2022-07-06T03:26:25;13.40;19.80
17918;DHT22;9084;50.956;3.106;2022-07-06T03:28:51;13.40;21.00
17918;DHT22;9084;50.956;3.106;2022-07-06T03:31:17;13.40;21.00
17918;DHT22;9084;50.956;3.106;2022-07-06T03:33:43;13.40;22.60
17918;DHT22;9084;50.956;3.106;2022-07-06T03:36:10;13.40;24.40
17918;DHT22;9084;50.956;3.106;2022-07-06T03:38:36;13.40;25.50
17918;DHT22;9084;50.956;3.106;2022-07-06T03:41:02;13.40;25.00
17918;DHT22;9084;50.956;3.106;2022-07-06T03:43:33;13.50;23.60
17918;DHT22;9084;50.956;3.106;2022-07-06T03:46:02;13.50;23.60
17918;DHT22;9084;50.956;3.106;2022-07-06T03:48:28;13.60;23.50
17918;DHT22;9084;50.956;3.106;2022-07-06T03:50:54;13.60;23.30
17918;DHT22;9084;50.956;3.106;2022-07-06T03:53:22;13.60;23.30
17918;DHT22;9084;50.956;3.106;2022-07-06T03:55:48;13.60;23.90
17918;DHT22;9084;50.956;3.106;2022-07-06T03:58:34;13.60;24.40
17918;DHT22;9084;50.956;3.106;2022-07-06T04:01:00;13.70;24.70
17918;DHT22;9084;50.956;3.106;2022-07-06T04:03:25;13.80;27.00
17918;DHT22;9084;50.956;3.106;2022-07-06T04:05:52;13.90;26.20
17918;DHT22;9084;50.956;3.106;2022-07-06T04:08:18;13.90;25.30
17918;DHT22;9084;50.956;3.106;2022-07-06T04:10:47;14.00;25.20
17918;DHT22;9084;50.956;3.106;2022-07-06T04:13:13;14.00;23.90
17918;DHT22;9084;50.956;3.106;2022-07-06T04:15:39;14.10;22.80
17918;DHT22;9084;50.956;3.106;2022-07-06T04:18:07;14.10;19.10
17918;DHT22;9084;50.956;3.106;2022-07-06T04:20:33;14.20;19.40
17918;DHT22;9084;50.956;3.106;2022-07-06T04:22:59;14.30;18.90
17918;DHT22;9084;50.956;3.106;2022-07-06T04:25:25;14.30;15.20
17918;DHT22;9084;50.956;3.106;2022-07-06T04:27:52;14.30;16.10
17918;DHT22;9084;50.956;3.106;2022-07-06T04:30:17;14.30;15.40
17918;DHT22;9084;50.956;3.106;2022-07-06T04:32:45;14.40;15.00
17918;DHT22;9084;50.956;3.106;2022-07-06T04:35:11;14.40;14.50
17918;DHT22;9084;50.956;3.106;2022-07-06T04:37:39;14.50;12.90
17918;DHT22;9084;50.956;3.106;2022-07-06T04:40:06;14.50;12.70
17918;DHT22;9084;50.956;3.106;2022-07-06T04:42:32;14.70;10.10
17918;DHT22;9084;50.956;3.106;2022-07-06T04:45:00;14.70;9.20
17918;DHT22;9084;50.956;3.106;2022-07-06T04:47:26;14.80;6.90
17918;DHT22;9084;50.956;3.106;2022-07-06T04:49:52;14.90;3.80
17918;DHT22;9084;50.956;3.106;2022-07-06T04:52:23;15.00;1.00
17918;DHT22;9084;50.956;3.106;2022-07-06T04:54:48;15.10;1.00
17918;DHT22;9084;50.956;3.106;2022-07-06T04:57:14;15.20;1.00
17918;DHT22;9084;50.956;3.106;2022-07-06T04:59:42;15.30;1.00
17918;DHT22;9084;50.956;3.106;2022-07-06T05:02:10;15.40;1.00
17918;DHT22;9084;50.956;3.106;2022-07-06T05:04:36;15.50;1.00
17918;DHT22;9084;50.956;3.106;2022-07-06T05:07:02;15.50;1.00
17918;DHT22;9084;50.956;3.106;2022-07-06T05:09:28;15.60;1.00
17918;DHT22;9084;50.956;3.106;2022-07-06T05:11:59;15.60;1.00
17918;DHT22;9084;50.956;3.106;2022-07-06T05:14:28;15.70;1.00
17918;DHT22;9084;50.956;3.106;2022-07-06T05:16:54;15.70;1.00
17918;DHT22;9084;50.956;3.106;2022-07-06T05:19:22;15.80;1.00
17918;DHT22;9084;50.956;3.106;2022-07-06T05:21:50;15.90;1.00
17918;DHT22;9084;50.956;3.106;2022-07-06T05:24:21;16.10;1.00
17918;DHT22;9084;50.956;3.106;2022-07-06T05:26:47;16.20;1.00
17918;DHT22;9084;50.956;3.106;2022-07-06T05:29:18;16.40;1.00
17918;DHT22;9084;50.956;3.106;2022-07-06T05:31:47;16.50;1.00
17918;DHT22;9084;50.956;3.106;2022-07-06T05:34:13;16.70;1.00
17918;DHT22;9084;50.956;3.106;2022-07-06T05:36:41;16.80;1.00
17918;DHT22;9084;50.956;3.106;2022-07-06T05:39:08;16.90;1.00
17918;DHT22;9084;50.956;3.106;2022-07-06T05:41:33;17.00;1.00
17918;DHT22;9084;50.956;3.106;2022-07-06T05:43:59;17.10;1.00
17918;DHT22;9084;50.956;3.106;2022-07-06T05:46:24;17.20;1.00
17918;DHT22;9084;50.956;3.106;2022-07-06T05:48:50;17.30;1.00
17918;DHT22;9084;50.956;3.106;2022-07-06T05:51:36;17.30;1.00
17918;DHT22;9084;50.956;3.106;2022-07-06T05:54:04;17.30;1.00
17918;DHT22;9084;50.956;3.106;2022-07-06T05:56:30;17.30;1.00
17918;DHT22;9084;50.956;3.106;2022-07-06T05:58:57;17.30;1.00
17918;DHT22;9084;50.956;3.106;2022-07-06T06:01:25;17.40;1.00
17918;DHT22;9084;50.956;3.106;2022-07-06T06:03:53;17.30;1.00
17918;DHT22;9084;50.956;3.106;2022-07-06T06:06:19;17.30;1.00
17918;DHT22;9084;50.956;3.106;2022-07-06T06:08:45;17.30;1.00
17918;DHT22;9084;50.956;3.106;2022-07-06T06:11:11;17.30;1.00
17918;DHT22;9084;50.956;3.106;2022-07-06T06:13:39;17.20;1.00
17918;DHT22;9084;50.956;3.106;2022-07-06T06:16:05;17.20;1.00
17918;DHT22;9084;50.956;3.106;2022-07-06T06:18:34;17.10;1.00
17918;DHT22;9084;50.956;3.106;2022-07-06T06:20:59;17.00;1.00
17918;DHT22;9084;50.956;3.106;2022-07-06T06:23:25;17.00;1.00
17918;DHT22;9084;50.956;3.106;2022-07-06T06:25:52;16.90;1.00
17918;DHT22;9084;50.956;3.106;2022-07-06T06:28:18;16.90;1.00
17918;DHT22;9084;50.956;3.106;2022-07-06T06:30:43;16.90;1.00
17918;DHT22;9084;50.956;3.106;2022-07-06T06:33:14;16.90;1.00
17918;DHT22;9084;50.956;3.106;2022-07-06T06:35:49;16.90;1.00
17918;DHT22;9084;50.956;3.106;2022-07-06T06:38:16;17.00;1.00
17918;DHT22;9084;50.956;3.106;2022-07-06T06:40:45;17.00;1.00
17918;DHT22;9084;50.956;3.106;2022-07-06T06:43:10;17.00;1.00
17918;DHT22;9084;50.956;3.106;2022-07-06T06:45:37;17.10;1.00
17918;DHT22;9084;50.956;3.106;2022-07-06T06:48:03;17.10;1.00
17918;DHT22;9084;50.956;3.106;2022-07-06T06:50:29;17.20;1.00
17918;DHT22;9084;50.956;3.106;2022-07-06T06:52:59;17.20;1.00
17918;DHT22;9084;50.956;3.106;2022-07-06T06:55:28;17.20;1.00
17918;DHT22;9084;50.956;3.106;2022-07-06T06:57:56;17.20;1.00
17918;DHT22;9084;50.956;3.106;2022-07-06T07:00:22;17.10;1.00
17918;DHT22;9084;50.956;3.106;2022-07-06T07:02:47;17.20;1.00
17918;DHT22;9084;50.956;3.106;2022-07-06T07:05:14;17.20;1.00
17918;DHT22;9084;50.956;3.106;2022-07-06T07:07:40;17.20;1.00
17918;DHT22;9084;50.956;3.106;2022-07-06T07:10:06;17.20;1.00
17918;DHT22;9084;50.956;3.106;2022-07-06T07:12:32;17.30;1.00
17918;DHT22;9084;50.956;3.106;2022-07-06T07:14:58;17.40;1.00
17918;DHT22;9084;50.956;3.106;2022-07-06T07:17:27;17.50;1.00
17918;DHT22;9084;50.956;3.106;2022-07-06T07:19:55;17.70;1.00
17918;DHT22;9084;50.956;3.106;2022-07-06T07:22:22;17.80;1.00
17918;DHT22;9084;50.956;3.106;2022-07-06T07:24:48;17.90;1.00
17918;DHT22;9084;50.956;3.106;2022-07-06T07:27:14;18.10;1.00
17918;DHT22;9084;50.956;3.106;2022-07-06T07:29:40;18.20;1.00
17918;DHT22;9084;50.956;3.106;2022-07-06T07:32:06;18.50;1.00
17918;DHT22;9084;50.956;3.106;2022-07-06T07:34:31;18.70;1.00
17918;DHT22;9084;50.956;3.106;2022-07-06T07:36:57;18.80;1.00
17918;DHT22;9084;50.956;3.106;2022-07-06T07:39:23;19.00;1.00
17918;DHT22;9084;50.956;3.106;2022-07-06T07:41:49;19.30;1.00
17918;DHT22;9084;50.956;3.106;2022-07-06T07:44:16;19.50;1.00
17918;DHT22;9084;50.956;3.106;2022-07-06T07:46:42;19.80;1.00
17918;DHT22;9084;50.956;3.106;2022-07-06T07:49:07;20.20;1.00
17918;DHT22;9084;50.956;3.106;2022-07-06T07:51:33;20.50;1.00
17918;DHT22;9084;50.956;3.106;2022-07-06T07:54:01;20.70;1.00
17918;DHT22;9084;50.956;3.106;2022-07-06T07:56:27;20.70;1.00
17918;DHT22;9084;50.956;3.106;2022-07-06T07:58:55;20.80;1.00
17918;DHT22;9084;50.956;3.106;2022-07-06T08:01:20;20.90;1.00
17918;DHT22;9084;50.956;3.106;2022-07-06T08:03:47;20.90;1.00
17918;DHT22;9084;50.956;3.106;2022-07-06T08:06:13;21.00;1.00
17918;DHT22;9084;50.956;3.106;2022-07-06T08:08:38;21.10;1.00
17918;DHT22;9084;50.956;3.106;2022-07-06T08:11:04;21.30;1.00
17918;DHT22;9084;50.956;3.106;2022-07-06T08:13:30;21.50;1.00
17918;DHT22;9084;50.956;3.106;2022-07-06T08:15:59;21.60;1.00
17918;DHT22;9084;50.956;3.106;2022-07-06T08:18:25;21.60;1.00
17918;DHT22;9084;50.956;3.106;2022-07-06T08:20:51;21.70;1.00
17918;DHT22;9084;50.956;3.106;2022-07-06T08:23:18;21.70;1.00
17918;DHT22;9084;50.956;3.106;2022-07-06T08:25:46;21.80;1.00
17918;DHT22;9084;50.956;3.106;2022-07-06T08:28:12;22.00;1.00
17918;DHT22;9084;50.956;3.106;2022-07-06T08:30:37;22.00;1.00
17918;DHT22;9084;50.956;3.106;2022-07-06T08:33:05;22.00;1.00
17918;DHT22;9084;50.956;3.106;2022-07-06T08:35:31;22.00;1.00
17918;DHT22;9084;50.956;3.106;2022-07-06T08:37:57;21.90;1.00
17918;DHT22;9084;50.956;3.106;2022-07-06T08:40:23;22.00;1.00
17918;DHT22;9084;50.956;3.106;2022-07-06T08:42:53;21.90;1.00
17918;DHT22;9084;50.956;3.106;2022-07-06T08:45:19;21.90;1.00
17918;DHT22;9084;50.956;3.106;2022-07-06T08:47:47;22.00;1.00
17918;DHT22;9084;50.956;3.106;2022-07-06T08:50:17;22.10;1.00
17918;DHT22;9084;50.956;3.106;2022-07-06T08:52:43;22.30;1.00
17918;DHT22;9084;50.956;3.106;2022-07-06T08:55:12;22.50;1.00
17918;DHT22;9084;50.956;3.106;2022-07-06T08:57:43;22.70;1.00
17918;DHT22;9084;50.956;3.106;2022-07-06T09:00:11;23.00;1.00
17918;DHT22;9084;50.956;3.106;2022-07-06T09:02:37;23.00;99.90
17918;DHT22;9084;50.956;3.106;2022-07-06T09:05:05;23.10;1.00
17918;DHT22;9084;50.956;3.106;2022-07-06T09:07:32;23.20;1.00
17918;DHT22;9084;50.956;3.106;2022-07-06T09:09:59;23.30;1.00
17918;DHT22;9084;50.956;3.106;2022-07-06T09:12:31;23.20;99.90
17918;DHT22;9084;50.956;3.106;2022-07-06T09:14:59;23.20;1.00
17918;DHT22;9084;50.956;3.106;2022-07-06T09:17:28;23.20;99.90
17918;DHT22;9084;50.956;3.106;2022-07-06T09:19:55;23.10;99.90
17918;DHT22;9084;50.956;3.106;2022-07-06T09:22:31;23.10;99.90
17918;DHT22;9084;50.956;3.106;2022-07-06T09:25:13;23.20;99.90
17918;DHT22;9084;50.956;3.106;2022-07-06T09:27:41;23.20;99.90
17918;DHT22;9084;50.956;3.106;2022-07-06T09:30:09;23.20;99.90
17918;DHT22;9084;50.956;3.106;2022-07-06T09:32:50;23.20;99.90
17918;DHT22;9084;50.956;3.106;2022-07-06T09:35:20;23.20;99.90
17918;DHT22;9084;50.956;3.106;2022-07-06T09:37:47;23.10;99.90
17918;DHT22;9084;50.956;3.106;2022-07-06T09:40:18;23.10;99.90
17918;DHT22;9084;50.956;3.106;2022-07-06T09:42:44;23.00;99.90
17918;DHT22;9084;50.956;3.106;2022-07-06T09:45:11;23.00;99.90
17918;DHT22;9084;50.956;3.106;2022-07-06T09:47:37;22.90;99.90
17918;DHT22;9084;50.956;3.106;2022-07-06T09:50:06;22.70;99.90
17918;DHT22;9084;50.956;3.106;2022-07-06T09:52:38;22.70;99.90
17918;DHT22;9084;50.956;3.106;2022-07-06T09:55:14;22.70;1.00
17918;DHT22;9084;50.956;3.106;2022-07-06T09:57:54;22.70;1.00
17918;DHT22;9084;50.956;3.106;2022-07-06T10:00:20;22.70;1.00
17918;DHT22;9084;50.956;3.106;2022-07-06T10:02:47;22.60;99.90
17918;DHT22;9084;50.956;3.106;2022-07-06T10:05:16;22.50;99.90
17918;DHT22;9084;50.956;3.106;2022-07-06T10:07:45;22.40;99.90
17918;DHT22;9084;50.956;3.106;2022-07-06T10:10:12;22.20;99.90
17918;DHT22;9084;50.956;3.106;2022-07-06T10:12:42;22.00;99.90
17918;DHT22;9084;50.956;3.106;2022-07-06T10:15:10;21.90;1.00
17918;DHT22;9084;50.956;3.106;2022-07-06T10:17:40;21.80;1.00
17918;DHT22;9084;50.956;3.106;2022-07-06T10:20:08;21.90;1.00
17918;DHT22;9084;50.956;3.106;2022-07-06T10:22:34;22.00;1.00
17918;DHT22;9084;50.956;3.106;2022-07-06T10:25:02;21.90;1.00
17918;DHT22;9084;50.956;3.106;2022-07-06T10:27:30;22.00;1.00
17918;DHT22;9084;50.956;3.106;2022-07-06T10:30:00;22.10;1.00
17918;DHT22;9084;50.956;3.106;2022-07-06T10:32:30;22.20;1.00
17918;DHT22;9084;50.956;3.106;2022-07-06T10:34:56;22.30;99.90
17918;DHT22;9084;50.956;3.106;2022-07-06T10:37:26;22.40;10.30
17918;DHT22;9084;50.956;3.106;2022-07-06T10:39:53;22.60;1.00
17918;DHT22;9084;50.956;3.106;2022-07-06T10:42:47;22.90;21.20
17918;DHT22;9084;50.956;3.106;2022-07-06T10:45:50;23.20;1.00
17918;DHT22;9084;50.956;3.106;2022-07-06T10:48:16;23.40;1.00
17918;DHT22;9084;50.956;3.106;2022-07-06T10:53:15;23.50;1.00
17918;DHT22;9084;50.956;3.106;2022-07-06T10:55:46;23.50;1.00
17918;DHT22;9084;50.956;3.106;2022-07-06T10:58:46;23.60;99.90
17918;DHT22;9084;50.956;3.106;2022-07-06T11:01:13;23.80;23.40
17918;DHT22;9084;50.956;3.106;2022-07-06T11:04:04;23.90;1.00
17918;DHT22;9084;50.956;3.106;2022-07-06T11:06:36;23.90;1.00
17918;DHT22;9084;50.956;3.106;2022-07-06T11:09:07;23.90;1.00
17918;DHT22;9084;50.956;3.106;2022-07-06T11:16:40;24.30;1.00
17918;DHT22;9084;50.956;3.106;2022-07-06T11:19:29;24.30;1.00
17918;DHT22;9084;50.956;3.106;2022-07-06T11:22:08;24.20;1.00
17918;DHT22;9084;50.956;3.106;2022-07-06T11:24:39;23.90;1.00
17918;DHT22;9084;50.956;3.106;2022-07-06T11:27:06;23.70;99.90
17918;DHT22;9084;50.956;3.106;2022-07-06T11:29:33;23.50;1.00
17918;DHT22;9084;50.956;3.106;2022-07-06T11:32:01;23.40;1.00
17918;DHT22;9084;50.956;3.106;2022-07-06T11:34:37;23.40;1.00
17918;DHT22;9084;50.956;3.106;2022-07-06T11:37:08;23.50;90.90
17918;DHT22;9084;50.956;3.106;2022-07-06T11:39:38;23.60;1.00
17918;DHT22;9084;50.956;3.106;2022-07-06T11:42:09;23.70;99.90
17918;DHT22;9084;50.956;3.106;2022-07-06T11:44:36;23.80;1.00
17918;DHT22;9084;50.956;3.106;2022-07-06T11:47:03;24.00;99.90
17918;DHT22;9084;50.956;3.106;2022-07-06T11:49:35;24.00;91.10
17918;DHT22;9084;50.956;3.106;2022-07-06T11:52:12;24.10;1.00
17918;DHT22;9084;50.956;3.106;2022-07-06T11:54:39;24.10;1.00
17918;DHT22;9084;50.956;3.106;2022-07-06T11:57:09;24.00;99.90
17918;DHT22;9084;50.956;3.106;2022-07-06T11:59:38;24.00;1.00
17918;DHT22;9084;50.956;3.106;2022-07-06T12:02:06;23.90;99.90
17918;DHT22;9084;50.956;3.106;2022-07-06T12:04:34;24.00;1.00
17918;DHT22;9084;50.956;3.106;2022-07-06T12:07:06;24.10;1.00
17918;DHT22;9084;50.956;3.106;2022-07-06T12:09:39;24.20;1.00
17918;DHT22;9084;50.956;3.106;2022-07-06T12:12:08;24.10;1.00
17918;DHT22;9084;50.956;3.106;2022-07-06T12:14:41;24.10;1.00
17918;DHT22;9084;50.956;3.106;2022-07-06T12:17:09;24.10;99.90
17918;DHT22;9084;50.956;3.106;2022-07-06T12:19:36;24.20;1.00
17918;DHT22;9084;50.956;3.106;2022-07-06T12:22:05;24.40;99.90
17918;DHT22;9084;50.956;3.106;2022-07-06T12:24:33;24.50;99.90
17918;DHT22;9084;50.956;3.106;2022-07-06T12:27:13;24.50;99.90
17918;DHT22;9084;50.956;3.106;2022-07-06T12:29:42;24.40;99.90
17918;DHT22;9084;50.956;3.106;2022-07-06T12:32:17;24.20;1.00
17918;DHT22;9084;50.956;3.106;2022-07-06T12:34:45;24.00;1.00
17918;DHT22;9084;50.956;3.106;2022-07-06T12:37:11;24.00;1.00
17918;DHT22;9084;50.956;3.106;2022-07-06T12:42:10;24.00;1.00
17918;DHT22;9084;50.956;3.106;2022-07-06T12:44:45;24.10;99.90
17918;DHT22;9084;50.956;3.106;2022-07-06T12:47:12;24.20;1.00
17918;DHT22;9084;50.956;3.106;2022-07-06T12:49:38;24.30;1.00
17918;DHT22;9084;50.956;3.106;2022-07-06T12:52:11;24.40;1.00
17918;DHT22;9084;50.956;3.106;2022-07-06T12:54:48;24.50;99.90
17918;DHT22;9084;50.956;3.106;2022-07-06T12:57:21;24.70;1.00
17918;DHT22;9084;50.956;3.106;2022-07-06T13:05:00;24.50;1.00
17918;DHT22;9084;50.956;3.106;2022-07-06T13:07:26;24.50;1.00
17918;DHT22;9084;50.956;3.106;2022-07-06T13:09:54;24.50;1.00
17918;DHT22;9084;50.956;3.106;2022-07-06T13:12:20;24.50;1.00
17918;DHT22;9084;50.956;3.106;2022-07-06T13:14:47;24.70;1.00
17918;DHT22;9084;50.956;3.106;2022-07-06T13:17:13;24.80;99.90
17918;DHT22;9084;50.956;3.106;2022-07-06T13:19:39;24.90;99.90
17918;DHT22;9084;50.956;3.106;2022-07-06T13:22:07;24.90;1.00
17918;DHT22;9084;50.956;3.106;2022-07-06T13:24:34;24.90;99.90
17918;DHT22;9084;50.956;3.106;2022-07-06T13:27:01;24.90;1.00
17918;DHT22;9084;50.956;3.106;2022-07-06T13:29:27;24.80;99.90
17918;DHT22;9084;50.956;3.106;2022-07-06T13:31:53;24.80;1.00
17918;DHT22;9084;50.956;3.106;2022-07-06T13:34:19;24.80;99.90
17918;DHT22;9084;50.956;3.106;2022-07-06T13:36:46;24.90;1.00
17918;DHT22;9084;50.956;3.106;2022-07-06T13:39:14;24.90;1.00
17918;DHT22;9084;50.956;3.106;2022-07-06T13:41:43;25.10;1.00
17918;DHT22;9084;50.956;3.106;2022-07-06T13:44:12;25.20;1.00
17918;DHT22;9084;50.956;3.106;2022-07-06T13:46:40;25.30;1.00
17918;DHT22;9084;50.956;3.106;2022-07-06T13:49:06;25.20;99.90
17918;DHT22;9084;50.956;3.106;2022-07-06T13:51:35;25.20;1.00
17918;DHT22;9084;50.956;3.106;2022-07-06T13:54:03;25.10;1.00
17918;DHT22;9084;50.956;3.106;2022-07-06T13:56:31;25.10;1.00
17918;DHT22;9084;50.956;3.106;2022-07-06T13:58:57;25.00;6.40
17918;DHT22;9084;50.956;3.106;2022-07-06T14:01:23;24.90;1.00
17918;DHT22;9084;50.956;3.106;2022-07-06T14:03:49;24.90;1.00
17918;DHT22;9084;50.956;3.106;2022-07-06T14:06:15;24.80;1.00
17918;DHT22;9084;50.956;3.106;2022-07-06T14:08:42;24.90;99.90
17918;DHT22;9084;50.956;3.106;2022-07-06T14:11:08;24.90;99.90
17918;DHT22;9084;50.956;3.106;2022-07-06T14:13:35;24.90;1.00
17918;DHT22;9084;50.956;3.106;2022-07-06T14:16:02;24.90;99.90
17918;DHT22;9084;50.956;3.106;2022-07-06T14:18:28;24.90;99.90
17918;DHT22;9084;50.956;3.106;2022-07-06T14:20:54;24.90;99.90
17918;DHT22;9084;50.956;3.106;2022-07-06T14:23:21;24.90;99.90
17918;DHT22;9084;50.956;3.106;2022-07-06T14:25:50;25.10;1.00
17918;DHT22;9084;50.956;3.106;2022-07-06T14:28:17;25.20;1.00
17918;DHT22;9084;50.956;3.106;2022-07-06T14:30:44;25.30;1.00
17918;DHT22;9084;50.956;3.106;2022-07-06T14:33:14;25.50;1.00
17918;DHT22;9084;50.956;3.106;2022-07-06T14:35:47;25.50;1.00
17918;DHT22;9084;50.956;3.106;2022-07-06T14:38:18;25.50;99.90
17918;DHT22;9084;50.956;3.106;2022-07-06T14:40:44;25.40;1.00
17918;DHT22;9084;50.956;3.106;2022-07-06T14:43:11;25.30;1.00
17918;DHT22;9084;50.956;3.106;2022-07-06T14:45:39;25.20;1.00
17918;DHT22;9084;50.956;3.106;2022-07-06T14:48:05;25.20;99.90
17918;DHT22;9084;50.956;3.106;2022-07-06T14:50:31;25.30;1.00
17918;DHT22;9084;50.956;3.106;2022-07-06T14:53:01;25.30;1.00
17918;DHT22;9084;50.956;3.106;2022-07-06T14:55:27;25.30;99.90
17918;DHT22;9084;50.956;3.106;2022-07-06T14:57:52;25.40;1.00
17918;DHT22;9084;50.956;3.106;2022-07-06T15:00:21;25.30;1.00
17918;DHT22;9084;50.956;3.106;2022-07-06T15:02:47;25.30;99.90
17918;DHT22;9084;50.956;3.106;2022-07-06T15:05:15;25.30;11.20
17918;DHT22;9084;50.956;3.106;2022-07-06T15:07:42;25.30;1.00
17918;DHT22;9084;50.956;3.106;2022-07-06T15:10:08;25.20;1.00
17918;DHT22;9084;50.956;3.106;2022-07-06T15:12:37;25.20;1.00
17918;DHT22;9084;50.956;3.106;2022-07-06T15:15:08;25.10;1.00
17918;DHT22;9084;50.956;3.106;2022-07-06T15:17:34;25.20;1.00
17918;DHT22;9084;50.956;3.106;2022-07-06T15:20:00;25.20;99.90
17918;DHT22;9084;50.956;3.106;2022-07-06T15:22:26;25.00;99.90
17918;DHT22;9084;50.956;3.106;2022-07-06T15:24:51;25.00;1.00
17918;DHT22;9084;50.956;3.106;2022-07-06T15:27:17;25.00;1.00
17918;DHT22;9084;50.956;3.106;2022-07-06T15:29:43;25.00;1.00
17918;DHT22;9084;50.956;3.106;2022-07-06T15:32:09;25.10;1.00
17918;DHT22;9084;50.956;3.106;2022-07-06T15:34:38;25.10;1.00
17918;DHT22;9084;50.956;3.106;2022-07-06T15:37:06;25.10;1.00
17918;DHT22;9084;50.956;3.106;2022-07-06T15:39:32;25.10;1.00
17918;DHT22;9084;50.956;3.106;2022-07-06T15:42:00;25.10;1.00
17918;DHT22;9084;50.956;3.106;2022-07-06T15:44:27;25.00;1.00
17918;DHT22;9084;50.956;3.106;2022-07-06T15:46:54;25.00;99.90
17918;DHT22;9084;50.956;3.106;2022-07-06T15:49:23;25.00;99.90
17918;DHT22;9084;50.956;3.106;2022-07-06T15:51:53;25.10;1.00
17918;DHT22;9084;50.956;3.106;2022-07-06T15:54:21;25.10;1.00
17918;DHT22;9084;50.956;3.106;2022-07-06T15:56:46;25.10;99.90
17918;DHT22;9084;50.956;3.106;2022-07-06T15:59:17;25.30;99.90
17918;DHT22;9084;50.956;3.106;2022-07-06T16:01:45;25.40;1.00
17918;DHT22;9084;50.956;3.106;2022-07-06T16:04:13;25.70;1.00
17918;DHT22;9084;50.956;3.106;2022-07-06T16:06:39;25.80;1.00
17918;DHT22;9084;50.956;3.106;2022-07-06T16:09:05;26.00;99.90
17918;DHT22;9084;50.956;3.106;2022-07-06T16:11:30;26.00;99.90
17918;DHT22;9084;50.956;3.106;2022-07-06T16:13:56;26.00;1.00
17918;DHT22;9084;50.956;3.106;2022-07-06T16:16:25;26.00;51.00